Time,TemperatureF,DewpointF,PressureIn,WindDirection,WindDirectionDegrees,WindSpeedMPH,WindSpeedGustMPH,Humidity,HourlyPrecipIn,Conditions,Clouds,dailyrainin,SoftwareType,DateUTC
2013-01-10 00:03:00,37.0,36.5,30.02,SW,225,4.6,4.6,98,0.01,RA,,0.00,WeatherDisplay:10.37,2013-01-10 08:03:00,
2013-01-10 00:08:00,37.2,36.7,30.02,SW,225,4.6,4.6,98,0.01,RA,,0.00,WeatherDisplay:10.37,2013-01-10 08:08:00,
2013-01-10 00:13:00,37.2,36.7,30.03,NE,45,3.5,3.5,98,0.00,CLR,,0.00,WeatherDisplay:10.37,2013-01-10 08:13:00,
2013-01-10 00:18:00,37.2,36.4,30.03,East,90,4.6,4.6,97,0.01,RA,,0.01,WeatherDisplay:10.37,2013-01-10 08:18:00,
2013-01-10 00:23:00,37.0,36.3,30.02,SW,225,1.1,1.1,97,0.01,RA,,0.01,WeatherDisplay:10.37,2013-01-10 08:23:00,
2013-01-10 00:28:00,36.9,36.1,30.03,SW,225,6.0,6.0,97,0.01,,,0.02,WeatherDisplay:10.37,2013-01-10 08:28:00,
2013-01-10 00:33:00,36.7,35.9,30.03,SW,225,5.8,5.8,97,0.02,RA,,0.02,WeatherDisplay:10.37,2013-01-10 08:33:00,
2013-01-10 00:39:00,36.7,35.9,30.03,SW,225,3.5,3.5,97,0.02,,,0.02,WeatherDisplay:10.37,2013-01-10 08:39:00,
2013-01-10 00:44:00,36.5,35.7,30.03,SE,135,1.1,0.0,97,0.02,CLR,,0.02,WeatherDisplay:10.37,2013-01-10 08:44:00,
2013-01-10 00:49:00,36.5,35.7,30.03,SE,135,1.1,0.0,97,0.02,CLR,,0.02,WeatherDisplay:10.37,2013-01-10 08:49:00,
2013-01-10 01:42:00,36.0,35.5,30.03,North,0,1.1,0.0,98,0.00,CLR,,0.02,WeatherDisplay:10.37,2013-01-10 09:42:00,
2013-01-10 01:47:00,36.0,35.5,30.03,East,90,2.3,0.0,98,0.00,CLR,,0.02,WeatherDisplay:10.37,2013-01-10 09:47:00,
2013-01-10 01:52:00,36.0,35.5,30.04,SE,135,1.1,0.0,98,0.00,CLR,,0.02,WeatherDisplay:10.37,2013-01-10 09:52:00,
2013-01-10 01:57:00,36.0,35.5,30.04,South,180,1.1,0.0,98,0.00,CLR,,0.02,WeatherDisplay:10.37,2013-01-10 09:57:00,
2013-01-10 02:02:00,35.8,35.3,30.04,East,90,0.0,0.0,98,0.00,CLR,,0.02,WeatherDisplay:10.37,2013-01-10 10:02:00,
2013-01-10 02:07:00,35.8,35.3,30.05,South,180,1.1,0.0,98,0.00,CLR,,0.02,WeatherDisplay:10.37,2013-01-10 10:07:00,
2013-01-10 02:12:00,35.8,35.3,30.05,SE,135,2.3,2.3,98,0.00,CLR,,0.02,WeatherDisplay:10.37,2013-01-10 10:12:00,
2013-01-10 02:17:00,35.8,35.3,30.05,South,180,1.1,0.0,98,0.00,CLR,,0.02,WeatherDisplay:10.37,2013-01-10 10:17:00,
2013-01-10 02:22:00,35.8,35.3,30.05,East,90,3.5,0.0,98,0.00,CLR,,0.02,WeatherDisplay:10.37,2013-01-10 10:22:00,
2013-01-10 02:27:00,35.8,35.3,30.05,West,270,3.5,3.5,98,0.00,CLR,,0.02,WeatherDisplay:10.37,2013-01-10 10:27:00,
2013-01-10 02:32:00,36.0,35.5,30.06,NW,315,3.5,3.5,98,0.00,CLR,,0.02,WeatherDisplay:10.37,2013-01-10 10:32:00,
2013-01-10 02:37:00,36.0,35.5,30.06,NE,45,1.1,0.0,98,0.00,CLR,,0.02,WeatherDisplay:10.37,2013-01-10 10:37:00,
2013-01-10 02:42:00,36.1,35.6,30.06,East,90,3.5,3.5,98,0.01,RA,,0.04,WeatherDisplay:10.37,2013-01-10 10:42:00,
2013-01-10 02:47:00,36.1,35.6,30.06,South,180,3.5,3.5,98,0.02,RA,,0.05,WeatherDisplay:10.37,2013-01-10 10:47:00,
2013-01-10 02:52:00,36.1,35.9,30.06,South,180,8.1,8.1,99,0.02,RA,,0.05,WeatherDisplay:10.37,2013-01-10 10:52:00,
2013-01-10 02:57:00,36.1,35.6,30.06,SE,135,4.6,0.0,98,0.02,CLR,,0.05,WeatherDisplay:10.37,2013-01-10 10:57:00,
2013-01-10 03:02:00,36.0,35.5,30.06,SE,135,2.3,2.3,98,0.02,CLR,,0.05,WeatherDisplay:10.37,2013-01-10 11:02:00,
2013-01-10 03:07:00,36.0,35.5,30.06,South,180,2.3,0.0,98,0.02,CLR,,0.05,WeatherDisplay:10.37,2013-01-10 11:07:00,
2013-01-10 04:33:00,35.6,35.3,30.06,SW,225,4.6,4.6,99,0.00,CLR,,0.05,WeatherDisplay:10.37,2013-01-10 12:33:00,
2013-01-10 04:38:00,35.6,35.3,30.07,West,270,1.6,0.0,99,0.00,CLR,,0.05,WeatherDisplay:10.37,2013-01-10 12:38:00,
2013-01-10 04:43:00,35.6,35.3,30.06,SW,225,1.1,0.0,99,0.00,CLR,,0.05,WeatherDisplay:10.37,2013-01-10 12:43:00,
2013-01-10 04:48:00,35.4,35.2,30.07,NW,315,2.3,0.0,99,0.00,CLR,,0.05,WeatherDisplay:10.37,2013-01-10 12:48:00,
2013-01-10 04:53:00,35.4,35.2,30.07,West,270,1.1,0.0,99,0.00,CLR,,0.05,WeatherDisplay:10.37,2013-01-10 12:53:00,
2013-01-10 04:58:00,35.4,35.2,30.08,West,270,1.1,0.0,99,0.00,CLR,,0.05,WeatherDisplay:10.37,2013-01-10 12:58:00,
2013-01-10 05:03:00,35.6,35.3,30.07,SE,135,1.1,1.1,99,0.00,CLR,,0.05,WeatherDisplay:10.37,2013-01-10 13:03:00,
2013-01-10 05:08:00,35.6,35.3,30.07,SE,135,1.1,0.0,99,0.00,CLR,,0.05,WeatherDisplay:10.37,2013-01-10 13:08:00,
2013-01-10 05:13:00,35.6,35.3,30.08,North,0,2.3,2.3,99,0.00,CLR,,0.05,WeatherDisplay:10.37,2013-01-10 13:13:00,
2013-01-10 05:18:00,35.4,35.2,30.08,NW,315,3.5,3.5,99,0.00,CLR,,0.05,WeatherDisplay:10.37,2013-01-10 13:18:00,
2013-01-10 05:23:00,35.6,35.3,30.08,NE,45,1.1,0.0,99,0.00,CLR,,0.05,WeatherDisplay:10.37,2013-01-10 13:23:00,
2013-01-10 05:28:00,35.6,35.3,30.08,NE,45,1.1,0.0,99,0.00,CLR,,0.05,WeatherDisplay:10.37,2013-01-10 13:28:00,
2013-01-10 05:33:00,35.8,35.5,30.08,NE,45,1.1,0.0,99,0.00,CLR,,0.05,WeatherDisplay:10.37,2013-01-10 13:33:00,
2013-01-10 05:38:00,35.8,35.5,30.08,West,270,1.1,0.0,99,0.00,CLR,,0.05,WeatherDisplay:10.37,2013-01-10 13:38:00,
2013-01-10 05:43:00,35.8,35.5,30.08,SW,225,1.1,0.0,99,0.00,CLR,,0.05,WeatherDisplay:10.37,2013-01-10 13:43:00,
2013-01-10 05:49:00,35.8,35.5,30.09,SW,225,1.1,0.0,99,0.00,CLR,,0.05,WeatherDisplay:10.37,2013-01-10 13:49:00,
2013-01-10 05:54:00,35.8,35.5,30.09,SW,225,1.1,0.0,99,0.00,CLR,,0.05,WeatherDisplay:10.37,2013-01-10 13:54:00,
2013-01-10 05:59:00,35.8,35.5,30.08,SW,225,2.3,2.3,99,0.00,CLR,,0.05,WeatherDisplay:10.37,2013-01-10 13:59:00,
2013-01-10 06:04:00,35.8,35.5,30.09,West,270,3.5,3.5,99,0.00,CLR,,0.05,WeatherDisplay:10.37,2013-01-10 14:04:00,
2013-01-10 06:09:00,35.8,35.5,30.09,NW,315,1.1,0.0,99,0.00,CLR,,0.05,WeatherDisplay:10.37,2013-01-10 14:09:00,
2013-01-10 06:14:00,35.8,35.5,30.09,South,180,1.1,0.0,99,0.00,CLR,,0.05,WeatherDisplay:10.37,2013-01-10 14:14:00,
2013-01-10 06:19:00,35.8,35.5,30.09,South,180,1.1,0.0,99,0.00,CLR,,0.05,WeatherDisplay:10.37,2013-01-10 14:19:00,
2013-01-10 06:24:00,35.8,35.5,30.09,SW,225,1.1,0.0,99,0.00,CLR,,0.05,WeatherDisplay:10.37,2013-01-10 14:24:00,
2013-01-10 06:29:00,35.6,35.3,30.09,SW,225,0.0,0.0,99,0.00,CLR,,0.05,WeatherDisplay:10.37,2013-01-10 14:29:00,
2013-01-10 06:34:00,35.4,35.2,30.09,SW,225,0.0,0.0,99,0.00,CLR,,0.05,WeatherDisplay:10.37,2013-01-10 14:34:00,
2013-01-10 06:39:00,35.2,35.0,30.09,West,270,1.1,0.0,99,0.00,CLR,,0.05,WeatherDisplay:10.37,2013-01-10 14:39:00,
2013-01-10 06:44:00,35.4,35.2,30.09,SW,225,1.1,0.0,99,0.00,CLR,,0.05,WeatherDisplay:10.37,2013-01-10 14:44:00,
2013-01-10 06:49:00,35.4,35.2,30.09,South,180,0.0,0.0,99,0.00,CLR,,0.05,WeatherDisplay:10.37,2013-01-10 14:49:00,
2013-01-10 06:54:00,35.4,35.2,30.10,NW,315,1.1,0.0,99,0.00,CLR,,0.05,WeatherDisplay:10.37,2013-01-10 14:54:00,
2013-01-10 06:59:00,35.4,35.2,30.09,West,270,0.0,0.0,99,0.00,CLR,,0.05,WeatherDisplay:10.37,2013-01-10 14:59:00,
2013-01-10 07:04:00,35.4,35.2,30.10,SW,225,3.5,3.5,99,0.00,CLR,,0.05,WeatherDisplay:10.37,2013-01-10 15:04:00,
2013-01-10 07:09:00,35.4,35.2,30.10,SW,225,3.5,0.0,99,0.00,CLR,,0.05,WeatherDisplay:10.37,2013-01-10 15:09:00,
2013-01-10 07:14:00,35.4,35.2,30.11,SW,225,1.1,0.0,99,0.00,CLR,,0.05,WeatherDisplay:10.37,2013-01-10 15:14:00,
2013-01-10 07:19:00,35.6,35.3,30.10,South,180,4.6,4.6,99,0.00,CLR,,0.05,WeatherDisplay:10.37,2013-01-10 15:19:00,
2013-01-10 07:24:00,35.8,35.5,30.10,South,180,3.5,3.5,99,0.00,CLR,,0.05,WeatherDisplay:10.37,2013-01-10 15:24:00,
2013-01-10 07:29:00,35.8,35.5,30.11,SW,225,0.0,0.0,99,0.00,CLR,,0.05,WeatherDisplay:10.37,2013-01-10 15:29:00,
2013-01-10 07:34:00,35.8,35.5,30.11,SW,225,2.3,2.3,99,0.00,CLR,,0.05,WeatherDisplay:10.37,2013-01-10 15:34:00,
2013-01-10 07:39:00,35.8,35.5,30.11,SW,225,0.0,0.0,99,0.00,CLR,,0.05,WeatherDisplay:10.37,2013-01-10 15:39:00,
2013-01-10 07:44:00,35.8,35.5,30.11,NE,45,0.0,0.7,99,0.00,CLR,,0.05,WeatherDisplay:10.37,2013-01-10 15:44:00,
2013-01-10 07:49:00,36.0,35.7,30.11,NE,45,0.0,0.0,99,0.00,CLR,,0.05,WeatherDisplay:10.37,2013-01-10 15:49:00,
2013-01-10 07:54:00,36.0,35.7,30.12,NW,315,0.0,0.0,99,0.00,CLR,,0.05,WeatherDisplay:10.37,2013-01-10 15:54:00,
2013-01-10 07:59:00,36.0,35.7,30.11,North,0,1.1,0.0,99,0.00,CLR,,0.05,WeatherDisplay:10.37,2013-01-10 15:59:00,
2013-01-10 08:04:00,36.0,35.7,30.12,NW,315,0.0,0.0,99,0.00,CLR,,0.05,WeatherDisplay:10.37,2013-01-10 16:04:00,
2013-01-10 08:09:00,36.0,35.7,30.12,NE,45,1.1,0.0,99,0.00,CLR,,0.05,WeatherDisplay:10.37,2013-01-10 16:09:00,
2013-01-10 08:14:00,36.0,35.7,30.13,South,180,2.3,2.3,99,0.00,CLR,,0.05,WeatherDisplay:10.37,2013-01-10 16:14:00,
2013-01-10 08:19:00,36.0,35.7,30.13,SW,225,1.1,0.0,99,0.00,CLR,,0.05,WeatherDisplay:10.37,2013-01-10 16:19:00,
2013-01-10 08:24:00,36.0,35.7,30.13,SW,225,0.0,0.0,99,0.00,CLR,,0.05,WeatherDisplay:10.37,2013-01-10 16:24:00,
2013-01-10 08:29:00,36.1,35.9,30.13,SW,225,1.1,0.0,99,0.00,CLR,,0.05,WeatherDisplay:10.37,2013-01-10 16:29:00,
2013-01-10 08:34:00,36.1,35.9,30.13,South,180,1.1,0.0,99,0.00,CLR,,0.05,WeatherDisplay:10.37,2013-01-10 16:34:00,
2013-01-10 08:39:00,36.1,35.9,30.13,NE,45,3.5,3.5,99,0.00,CLR,,0.05,WeatherDisplay:10.37,2013-01-10 16:39:00,
2013-01-10 08:44:00,36.1,35.9,30.14,North,0,2.3,0.0,99,0.00,CLR,,0.05,WeatherDisplay:10.37,2013-01-10 16:44:00,
2013-01-10 08:49:00,36.3,36.1,30.13,NE,45,1.1,1.1,99,0.00,CLR,,0.05,WeatherDisplay:10.37,2013-01-10 16:49:00,
2013-01-10 08:54:00,36.3,36.1,30.13,NW,315,1.1,0.0,99,0.00,CLR,,0.05,WeatherDisplay:10.37,2013-01-10 16:54:00,
2013-01-10 08:59:00,36.3,36.1,30.14,South,180,1.6,1.6,99,0.00,CLR,,0.05,WeatherDisplay:10.37,2013-01-10 16:59:00,
2013-01-10 09:04:00,36.5,36.2,30.14,South,180,0.0,0.0,99,0.00,CLR,,0.05,WeatherDisplay:10.37,2013-01-10 17:04:00,
2013-01-10 09:09:00,36.5,36.2,30.14,South,180,1.1,0.0,99,0.00,CLR,,0.05,WeatherDisplay:10.37,2013-01-10 17:09:00,
2013-01-10 09:14:00,36.5,36.2,30.14,South,180,3.5,3.5,99,0.00,CLR,,0.05,WeatherDisplay:10.37,2013-01-10 17:14:00,
2013-01-10 09:19:00,36.7,36.4,30.14,South,180,3.5,3.5,99,0.00,CLR,,0.05,WeatherDisplay:10.37,2013-01-10 17:19:00,
2013-01-10 09:24:00,36.7,36.4,30.14,NE,45,1.1,1.1,99,0.00,CLR,,0.05,WeatherDisplay:10.37,2013-01-10 17:24:00,
2013-01-10 09:29:00,36.7,36.4,30.14,South,180,1.1,0.0,99,0.00,CLR,,0.05,WeatherDisplay:10.37,2013-01-10 17:29:00,
2013-01-10 09:34:00,36.7,36.4,30.15,North,0,3.5,3.5,99,0.00,CLR,,0.05,WeatherDisplay:10.37,2013-01-10 17:34:00,
2013-01-10 09:39:00,36.7,36.4,30.16,NE,45,2.3,0.0,99,0.00,CLR,,0.05,WeatherDisplay:10.37,2013-01-10 17:39:00,
2013-01-10 09:44:00,36.3,36.1,30.16,NW,315,2.3,2.3,99,0.00,CLR,,0.05,WeatherDisplay:10.37,2013-01-10 17:44:00,
2013-01-10 09:49:00,36.3,36.1,30.15,South,180,3.5,3.5,99,0.00,CLR,,0.05,WeatherDisplay:10.37,2013-01-10 17:49:00,
2013-01-10 09:54:00,36.3,36.1,30.14,SSW,202,5.8,5.8,99,0.00,CLR,,0.05,WeatherDisplay:10.37,2013-01-10 17:54:00,
2013-01-10 09:59:00,36.9,36.6,30.15,SW,225,2.3,0.0,99,0.00,CLR,,0.05,WeatherDisplay:10.37,2013-01-10 17:59:00,
2013-01-10 10:04:00,37.0,36.8,30.14,West,270,1.1,0.0,99,0.00,CLR,,0.05,WeatherDisplay:10.37,2013-01-10 18:04:00,
2013-01-10 10:09:00,37.2,37.0,30.15,NE,45,1.1,0.0,99,0.00,CLR,,0.05,WeatherDisplay:10.37,2013-01-10 18:09:00,
2013-01-10 10:14:00,37.2,37.0,30.15,East,90,3.5,3.5,99,0.00,CLR,,0.05,WeatherDisplay:10.37,2013-01-10 18:14:00,
2013-01-10 10:19:00,37.4,37.1,30.16,West,270,2.3,2.3,99,0.00,CLR,,0.05,WeatherDisplay:10.37,2013-01-10 18:19:00,
2013-01-10 10:24:00,37.4,37.1,30.16,SW,225,1.1,0.0,99,0.00,CLR,,0.05,WeatherDisplay:10.37,2013-01-10 18:24:00,
2013-01-10 10:29:00,37.6,37.3,30.16,South,180,2.3,2.3,99,0.00,CLR,,0.05,WeatherDisplay:10.37,2013-01-10 18:29:00,
2013-01-10 10:34:00,37.6,37.3,30.15,SSW,202,2.3,2.3,99,0.00,CLR,,0.05,WeatherDisplay:10.37,2013-01-10 18:34:00,
2013-01-10 10:39:00,37.8,37.5,30.15,South,180,4.6,4.6,99,0.00,CLR,,0.05,WeatherDisplay:10.37,2013-01-10 18:39:00,
2013-01-10 10:44:00,37.9,37.7,30.15,SW,225,8.1,8.1,99,0.00,CLR,,0.05,WeatherDisplay:10.37,2013-01-10 18:44:00,
2013-01-10 10:49:00,39.0,38.8,30.14,SSW,202,4.6,4.6,99,0.00,CLR,,0.05,WeatherDisplay:10.37,2013-01-10 18:49:00,
2013-01-10 10:54:00,43.0,42.7,30.14,SE,135,2.3,2.3,99,0.00,CLR,,0.05,WeatherDisplay:10.37,2013-01-10 18:54:00,
2013-01-10 10:59:00,44.2,44.0,30.14,SE,135,3.5,3.5,99,0.00,CLR,,0.05,WeatherDisplay:10.37,2013-01-10 18:59:00,
2013-01-10 11:04:00,42.6,41.3,30.14,North,0,3.5,3.5,95,0.00,CLR,,0.05,WeatherDisplay:10.37,2013-01-10 19:04:00,
2013-01-10 11:09:00,41.4,39.8,30.15,North,0,2.3,0.0,94,0.00,CLR,,0.05,WeatherDisplay:10.37,2013-01-10 19:09:00,
2013-01-10 11:14:00,40.8,39.5,30.15,East,90,2.3,2.3,95,0.00,CLR,,0.05,WeatherDisplay:10.37,2013-01-10 19:14:00,
2013-01-10 11:19:00,40.8,39.5,30.14,SE,135,1.1,1.1,95,0.00,CLR,,0.05,WeatherDisplay:10.37,2013-01-10 19:19:00,
2013-01-10 11:24:00,40.5,39.1,30.14,South,180,2.3,2.3,95,0.00,CLR,,0.05,WeatherDisplay:10.37,2013-01-10 19:24:00,
2013-01-10 11:29:00,40.3,39.0,30.14,SSE,158,5.8,6.0,95,0.00,CLR,,0.05,WeatherDisplay:10.37,2013-01-10 19:29:00,
2013-01-10 11:34:00,39.9,38.6,30.14,SSE,158,5.8,5.8,95,0.00,CLR,,0.05,WeatherDisplay:10.37,2013-01-10 19:34:00,
2013-01-10 11:39:00,40.1,39.1,30.14,North,0,1.1,0.0,96,0.00,CLR,,0.05,WeatherDisplay:10.37,2013-01-10 19:39:00,
2013-01-10 11:44:00,40.1,39.1,30.14,South,180,1.1,0.0,96,0.00,CLR,,0.05,WeatherDisplay:10.37,2013-01-10 19:44:00,
2013-01-10 11:49:00,40.1,39.1,30.14,NE,45,3.5,3.5,96,0.00,CLR,,0.05,WeatherDisplay:10.37,2013-01-10 19:49:00,
2013-01-10 11:54:00,39.6,38.5,30.13,South,180,3.5,3.5,96,0.00,CLR,,0.05,WeatherDisplay:10.37,2013-01-10 19:54:00,
2013-01-10 11:59:00,39.2,38.2,30.13,SW,225,3.5,3.5,96,0.01,RA,,0.06,WeatherDisplay:10.37,2013-01-10 19:59:00,
2013-01-10 12:04:00,39.4,38.3,30.13,South,180,3.5,3.5,96,0.01,RA,,0.06,WeatherDisplay:10.37,2013-01-10 20:04:00,
2013-01-10 12:10:00,39.9,39.1,30.13,SW,225,3.5,3.5,97,0.01,CLR,,0.06,WeatherDisplay:10.37,2013-01-10 20:10:00,
2013-01-10 12:15:00,40.3,39.5,30.13,South,180,4.6,4.6,97,0.01,CLR,,0.06,WeatherDisplay:10.37,2013-01-10 20:15:00,
2013-01-10 12:20:00,40.6,39.9,30.12,SW,225,3.5,3.5,97,0.01,CLR,,0.06,WeatherDisplay:10.37,2013-01-10 20:20:00,
2013-01-10 12:25:00,40.6,39.9,30.12,South,180,3.5,0.0,97,0.01,CLR,,0.06,WeatherDisplay:10.37,2013-01-10 20:25:00,
2013-01-10 12:30:00,40.6,39.9,30.12,SW,225,2.3,0.0,97,0.02,RA,,0.07,WeatherDisplay:10.37,2013-01-10 20:30:00,
2013-01-10 12:35:00,40.5,39.4,30.12,SW,225,5.8,5.8,96,0.02,RA,,0.07,WeatherDisplay:10.37,2013-01-10 20:35:00,
2013-01-10 12:40:00,39.9,38.9,30.12,South,180,5.8,5.8,96,0.04,RA,,0.09,WeatherDisplay:10.37,2013-01-10 20:40:00,
2013-01-10 12:45:00,40.1,39.1,30.12,SW,225,4.6,4.6,96,0.05,RA,,0.09,WeatherDisplay:10.37,2013-01-10 20:45:00,
2013-01-10 12:50:00,41.4,40.6,30.11,South,180,3.5,3.5,97,0.05,RA,,0.09,WeatherDisplay:10.37,2013-01-10 20:50:00,
2013-01-10 12:55:00,42.4,41.4,30.11,SE,135,3.5,3.5,96,0.05,CLR,,0.09,WeatherDisplay:10.37,2013-01-10 20:55:00,
2013-01-10 13:00:00,42.6,41.3,30.12,North,0,3.5,3.5,95,0.05,RA,,0.12,WeatherDisplay:10.37,2013-01-10 21:00:00,
2013-01-10 13:05:00,41.5,39.9,30.13,North,0,3.5,3.5,94,0.08,RA,,0.14,WeatherDisplay:10.37,2013-01-10 21:05:00,
2013-01-10 13:10:00,40.6,39.0,30.13,NW,315,3.5,3.5,94,0.08,RA,,0.14,WeatherDisplay:10.37,2013-01-10 21:10:00,
2013-01-10 13:15:00,40.1,38.5,30.12,SE,135,3.5,3.5,94,0.08,CLR,,0.14,WeatherDisplay:10.37,2013-01-10 21:15:00,
2013-01-10 13:20:00,39.9,38.6,30.12,SE,135,3.5,3.5,95,0.08,CLR,,0.14,WeatherDisplay:10.37,2013-01-10 21:20:00,
2013-01-10 13:25:00,40.3,39.2,30.11,South,180,3.5,3.5,96,0.08,CLR,,0.14,WeatherDisplay:10.37,2013-01-10 21:25:00,
2013-01-10 13:30:00,40.5,39.4,30.11,SW,225,2.3,2.3,96,0.07,CLR,,0.14,WeatherDisplay:10.37,2013-01-10 21:30:00,
2013-01-10 13:35:00,40.5,39.4,30.11,South,180,3.5,0.0,96,0.07,CLR,,0.14,WeatherDisplay:10.37,2013-01-10 21:35:00,
2013-01-10 13:40:00,40.5,39.7,30.12,West,270,2.3,2.3,97,0.05,CLR,,0.14,WeatherDisplay:10.37,2013-01-10 21:40:00,
2013-01-10 13:45:00,40.1,39.3,30.12,East,90,5.8,5.8,97,0.07,RA,,0.17,WeatherDisplay:10.37,2013-01-10 21:45:00,
2013-01-10 13:51:00,39.7,39.0,30.13,NW,315,2.3,0.0,97,0.08,RA,,0.18,WeatherDisplay:10.37,2013-01-10 21:51:00,
2013-01-10 13:56:00,39.6,38.8,30.13,East,90,2.3,0.0,97,0.09,RA,,0.19,WeatherDisplay:10.37,2013-01-10 21:56:00,
2013-01-10 14:01:00,39.6,38.8,30.13,SW,225,1.1,0.0,97,0.06,RA,,0.19,WeatherDisplay:10.37,2013-01-10 22:01:00,
2013-01-10 14:06:00,39.6,38.8,30.14,West,270,3.5,3.5,97,0.05,CLR,,0.19,WeatherDisplay:10.37,2013-01-10 22:06:00,
2013-01-10 14:11:00,39.7,39.0,30.14,West,270,5.8,6.0,97,0.05,CLR,,0.19,WeatherDisplay:10.37,2013-01-10 22:11:00,
2013-01-10 14:16:00,39.7,39.0,30.12,West,270,15.0,15.0,97,0.06,RA,,0.20,WeatherDisplay:10.37,2013-01-10 22:16:00,
2013-01-10 14:21:00,39.6,38.8,30.12,SW,225,5.8,5.8,97,0.06,RA,,0.21,WeatherDisplay:10.37,2013-01-10 22:21:00,
2013-01-10 14:26:00,39.9,39.1,30.13,SW,225,8.1,0.0,97,0.07,RA,,0.21,WeatherDisplay:10.37,2013-01-10 22:26:00,
2013-01-10 14:31:00,40.5,39.9,30.13,West,270,10.4,10.4,98,0.07,RA,,0.21,WeatherDisplay:10.37,2013-01-10 22:31:00,
2013-01-10 14:36:00,41.2,40.7,30.13,North,0,8.1,8.1,98,0.07,CLR,,0.21,WeatherDisplay:10.37,2013-01-10 22:36:00,
2013-01-10 14:41:00,41.5,41.0,30.13,North,0,6.9,6.9,98,0.07,CLR,,0.21,WeatherDisplay:10.37,2013-01-10 22:41:00,
2013-01-10 14:46:00,41.9,41.4,30.13,NW,315,9.2,9.2,98,0.05,CLR,,0.21,WeatherDisplay:10.37,2013-01-10 22:46:00,
2013-01-10 14:51:00,42.1,41.6,30.14,NE,45,3.5,0.0,98,0.04,CLR,,0.21,WeatherDisplay:10.37,2013-01-10 22:51:00,
2013-01-10 14:57:00,42.3,41.5,30.13,East,90,3.1,3.1,97,0.02,CLR,,0.21,WeatherDisplay:10.37,2013-01-10 22:57:00,
2013-01-10 15:02:00,42.3,41.5,30.14,West,270,4.6,4.6,97,0.02,CLR,,0.21,WeatherDisplay:10.37,2013-01-10 23:02:00,
2013-01-10 15:07:00,42.3,41.5,30.14,West,270,3.5,3.5,97,0.02,CLR,,0.21,WeatherDisplay:10.37,2013-01-10 23:07:00,
2013-01-10 15:12:00,42.3,41.5,30.15,NW,315,9.8,9.8,97,0.02,CLR,,0.21,WeatherDisplay:10.37,2013-01-10 23:12:00,
2013-01-10 15:17:00,42.3,41.2,30.15,NW,315,11.5,11.5,96,0.01,CLR,,0.21,WeatherDisplay:10.37,2013-01-10 23:17:00,
2013-01-10 15:22:00,42.1,40.8,30.14,West,270,5.8,5.8,95,0.00,CLR,,0.21,WeatherDisplay:10.37,2013-01-10 23:22:00,
2013-01-10 15:27:00,42.1,40.8,30.14,East,90,6.9,0.0,95,0.00,CLR,,0.21,WeatherDisplay:10.37,2013-01-10 23:27:00,
2013-01-10 15:32:00,41.9,40.3,30.14,NE,45,6.9,6.9,94,0.00,CLR,,0.21,WeatherDisplay:10.37,2013-01-10 23:32:00,
2013-01-10 15:37:00,41.9,40.3,30.14,NE,45,3.5,3.5,94,0.00,CLR,,0.21,WeatherDisplay:10.37,2013-01-10 23:37:00,
2013-01-10 15:42:00,41.9,40.3,30.14,NE,45,5.8,5.8,94,0.01,RA,,0.22,WeatherDisplay:10.37,2013-01-10 23:42:00,
2013-01-10 15:48:00,41.7,40.1,30.14,North,0,3.5,3.5,94,0.02,RA,,0.24,WeatherDisplay:10.37,2013-01-10 23:48:00,
2013-01-10 15:53:00,41.9,40.6,30.14,North,0,4.6,4.6,95,0.02,RA,,0.24,WeatherDisplay:10.37,2013-01-10 23:53:00,
2013-01-10 15:58:00,42.1,40.8,30.14,West,270,2.3,2.3,95,0.02,CLR,,0.24,WeatherDisplay:10.37,2013-01-10 23:58:00,
2013-01-10 16:03:00,42.4,41.1,30.14,North,0,5.8,5.8,95,0.02,CLR,,0.24,WeatherDisplay:10.37,2013-01-11 00:03:00,
2013-01-10 16:08:00,42.8,41.5,30.14,NE,45,11.5,11.5,95,0.02,CLR,,0.24,WeatherDisplay:10.37,2013-01-11 00:08:00,
2013-01-10 16:13:00,43.0,41.4,30.14,SW,225,12.7,12.7,94,0.02,CLR,,0.24,WeatherDisplay:10.37,2013-01-11 00:13:00,
2013-01-10 16:18:00,43.0,41.1,30.15,West,270,4.6,4.6,93,0.02,CLR,,0.24,WeatherDisplay:10.37,2013-01-11 00:18:00,
2013-01-10 16:23:00,43.0,41.1,30.15,NE,45,2.3,2.3,93,0.02,CLR,,0.24,WeatherDisplay:10.37,2013-01-11 00:23:00,
2013-01-10 16:28:00,43.3,41.5,30.14,SW,225,4.6,0.0,93,0.02,CLR,,0.24,WeatherDisplay:10.37,2013-01-11 00:28:00,
2013-01-10 16:33:00,43.7,41.8,30.15,East,90,3.5,3.5,93,0.02,CLR,,0.24,WeatherDisplay:10.37,2013-01-11 00:33:00,
2013-01-10 16:38:00,43.5,41.6,30.15,East,90,5.8,5.8,93,0.02,CLR,,0.24,WeatherDisplay:10.37,2013-01-11 00:38:00,
2013-01-10 16:43:00,43.3,41.5,30.15,East,90,2.3,0.0,93,0.01,CLR,,0.24,WeatherDisplay:10.37,2013-01-11 00:43:00,
2013-01-10 16:48:00,43.2,41.0,30.15,NW,315,4.6,4.6,92,0.00,CLR,,0.24,WeatherDisplay:10.37,2013-01-11 00:48:00,
2013-01-10 16:53:00,50.2,46.2,30.17,SE,135,3.5,3.5,86,0.00,CLR,,0.24,WeatherDisplay:10.37,2013-01-11 00:53:00,
2013-01-10 16:58:00,42.8,40.6,30.15,NE,45,5.8,5.8,92,0.00,CLR,,0.24,WeatherDisplay:10.37,2013-01-11 00:58:00,
2013-01-10 17:03:00,42.6,40.5,30.15,SE,135,5.8,5.8,92,0.00,CLR,,0.24,WeatherDisplay:10.37,2013-01-11 01:03:00,
2013-01-10 17:08:00,42.4,40.0,30.16,NW,315,8.3,8.3,91,0.00,CLR,,0.24,WeatherDisplay:10.37,2013-01-11 01:08:00,
2013-01-10 17:13:00,42.4,39.7,30.16,North,0,11.5,11.5,90,0.00,CLR,,0.24,WeatherDisplay:10.37,2013-01-11 01:13:00,
2013-01-10 17:19:00,42.6,39.6,30.16,West,270,8.1,8.1,89,0.00,CLR,,0.24,WeatherDisplay:10.37,2013-01-11 01:19:00,
2013-01-10 17:24:00,42.8,39.2,30.16,NW,315,8.1,8.1,87,0.00,CLR,,0.24,WeatherDisplay:10.37,2013-01-11 01:24:00,
2013-01-10 17:29:00,42.6,39.0,30.16,West,270,5.8,5.8,87,0.00,CLR,,0.24,WeatherDisplay:10.37,2013-01-11 01:29:00,
2013-01-10 17:34:00,42.3,38.7,30.16,SW,225,2.3,2.3,87,0.00,CLR,,0.24,WeatherDisplay:10.37,2013-01-11 01:34:00,
2013-01-10 17:39:00,42.3,38.4,30.16,East,90,8.1,8.1,86,0.00,CLR,,0.24,WeatherDisplay:10.37,2013-01-11 01:39:00,
2013-01-10 17:44:00,42.1,38.2,30.16,NW,315,3.5,3.5,86,0.00,CLR,,0.24,WeatherDisplay:10.37,2013-01-11 01:44:00,
2013-01-10 17:49:00,41.9,38.0,30.16,NE,45,3.5,0.0,86,0.00,CLR,,0.24,WeatherDisplay:10.37,2013-01-11 01:49:00,
2013-01-10 17:54:00,41.5,37.7,30.16,West,270,2.3,2.3,86,0.00,CLR,,0.24,WeatherDisplay:10.37,2013-01-11 01:54:00,
2013-01-10 17:59:00,41.5,37.7,30.16,NE,45,3.5,0.0,86,0.00,CLR,,0.24,WeatherDisplay:10.37,2013-01-11 01:59:00,
2013-01-10 18:04:00,41.5,38.0,30.16,West,270,2.3,0.0,87,0.00,CLR,,0.24,WeatherDisplay:10.37,2013-01-11 02:04:00,
2013-01-10 18:09:00,41.5,38.0,30.16,West,270,3.5,3.5,87,0.00,CLR,,0.24,WeatherDisplay:10.37,2013-01-11 02:09:00,
2013-01-10 18:14:00,42.1,37.9,30.16,East,90,11.5,11.5,85,0.00,CLR,,0.24,WeatherDisplay:10.37,2013-01-11 02:14:00,
2013-01-10 18:19:00,42.3,37.8,30.16,NE,45,3.5,3.5,84,0.00,CLR,,0.24,WeatherDisplay:10.37,2013-01-11 02:19:00,
2013-01-10 18:24:00,42.3,37.5,30.17,North,0,3.5,3.5,83,0.00,CLR,,0.24,WeatherDisplay:10.37,2013-01-11 02:24:00,
2013-01-10 18:29:00,42.3,37.2,30.17,NW,315,8.1,8.1,82,0.00,CLR,,0.24,WeatherDisplay:10.37,2013-01-11 02:29:00,
2013-01-10 18:34:00,42.6,37.8,30.17,North,0,5.8,5.8,83,0.00,CLR,,0.24,WeatherDisplay:10.37,2013-01-11 02:34:00,
2013-01-10 18:39:00,42.8,38.3,30.17,North,0,8.1,8.1,84,0.00,CLR,,0.24,WeatherDisplay:10.37,2013-01-11 02:39:00,
2013-01-10 18:44:00,43.0,38.5,30.17,NE,45,3.5,3.5,84,0.00,CLR,,0.24,WeatherDisplay:10.37,2013-01-11 02:44:00,
2013-01-10 18:49:00,43.0,38.2,30.17,North,0,10.4,10.4,83,0.00,CLR,,0.24,WeatherDisplay:10.37,2013-01-11 02:49:00,
2013-01-10 18:54:00,43.3,38.2,30.17,NW,315,8.1,8.1,82,0.00,CLR,,0.24,WeatherDisplay:10.37,2013-01-11 02:54:00,
2013-01-10 19:00:00,43.2,38.0,30.17,North,0,6.9,6.9,82,0.00,CLR,,0.24,WeatherDisplay:10.37,2013-01-11 03:00:00,
2013-01-10 19:05:00,43.2,38.0,30.17,SE,135,6.9,6.9,82,0.00,CLR,,0.24,WeatherDisplay:10.37,2013-01-11 03:05:00,
2013-01-10 19:10:00,43.3,38.2,30.17,NW,315,5.8,5.8,82,0.00,CLR,,0.24,WeatherDisplay:10.37,2013-01-11 03:10:00,
2013-01-10 19:15:00,43.3,38.2,30.17,NW,315,4.6,4.6,82,0.00,CLR,,0.24,WeatherDisplay:10.37,2013-01-11 03:15:00,
2013-01-10 19:20:00,43.3,38.2,30.17,NW,315,2.3,0.0,82,0.00,CLR,,0.24,WeatherDisplay:10.37,2013-01-11 03:20:00,
2013-01-10 19:25:00,43.2,37.7,30.17,NW,315,10.4,10.4,81,0.00,CLR,,0.24,WeatherDisplay:10.37,2013-01-11 03:25:00,
2013-01-10 19:30:00,43.2,38.0,30.17,South,180,6.9,0.0,82,0.00,CLR,,0.24,WeatherDisplay:10.37,2013-01-11 03:30:00,
2013-01-10 19:35:00,43.0,37.9,30.18,North,0,3.5,4.5,82,0.00,CLR,,0.24,WeatherDisplay:10.37,2013-01-11 03:35:00,
2013-01-10 19:40:00,43.0,37.9,30.18,East,90,3.5,0.0,82,0.00,CLR,,0.24,WeatherDisplay:10.37,2013-01-11 03:40:00,
2013-01-10 19:45:00,42.8,37.7,30.18,North,0,3.5,3.5,82,0.00,CLR,,0.24,WeatherDisplay:10.37,2013-01-11 03:45:00,
2013-01-10 19:50:00,42.4,37.6,30.18,NW,315,5.8,0.0,83,0.00,CLR,,0.24,WeatherDisplay:10.37,2013-01-11 03:50:00,
2013-01-10 19:55:00,42.4,37.9,30.18,SW,225,2.3,0.0,84,0.00,CLR,,0.24,WeatherDisplay:10.37,2013-01-11 03:55:00,
2013-01-10 20:00:00,42.4,37.9,30.17,SW,225,3.5,3.5,84,0.00,CLR,,0.24,WeatherDisplay:10.37,2013-01-11 04:00:00,
2013-01-10 20:05:00,42.4,37.9,30.17,West,270,1.1,0.0,84,0.00,CLR,,0.24,WeatherDisplay:10.37,2013-01-11 04:05:00,
2013-01-10 20:10:00,42.4,37.9,30.17,NW,315,3.5,3.5,84,0.00,CLR,,0.24,WeatherDisplay:10.37,2013-01-11 04:10:00,
2013-01-10 20:15:00,42.4,38.2,30.17,North,0,3.5,3.5,85,0.00,CLR,,0.24,WeatherDisplay:10.37,2013-01-11 04:15:00,
2013-01-10 20:20:00,42.6,38.4,30.17,SE,135,1.1,0.0,85,0.00,CLR,,0.24,WeatherDisplay:10.37,2013-01-11 04:20:00,
2013-01-10 20:25:00,42.6,38.4,30.17,West,270,3.5,3.5,85,0.01,RA,,0.25,WeatherDisplay:10.37,2013-01-11 04:25:00,
2013-01-10 20:30:00,42.6,38.1,30.18,NE,45,10.4,10.4,84,0.01,RA,,0.25,WeatherDisplay:10.37,2013-01-11 04:30:00,
2013-01-10 20:35:00,42.1,37.9,30.18,SW,225,3.5,0.0,85,0.02,RA,,0.26,WeatherDisplay:10.37,2013-01-11 04:35:00,
2013-01-10 20:41:00,41.4,37.5,30.17,North,0,5.8,5.8,86,0.02,RA,,0.26,WeatherDisplay:10.37,2013-01-11 04:41:00,
2013-01-10 20:45:00,40.8,37.0,30.18,South,180,2.3,0.0,86,0.02,CLR,,0.26,WeatherDisplay:10.37,2013-01-11 04:45:00,
2013-01-10 20:50:00,40.3,36.7,30.18,West,270,2.3,0.0,87,0.02,CLR,,0.26,WeatherDisplay:10.37,2013-01-11 04:50:00,
2013-01-10 20:55:00,40.1,36.8,30.18,South,180,1.1,0.0,88,0.02,CLR,,0.26,WeatherDisplay:10.37,2013-01-11 04:55:00,
2013-01-10 21:03:00,39.9,37.2,30.19,North,0,5.8,5.8,90,0.02,CLR,,0.26,WeatherDisplay:10.37,2013-01-11 05:03:00,
2013-01-10 21:04:00,39.9,37.2,30.19,NE,45,5.8,5.8,90,0.02,CLR,,0.26,WeatherDisplay:10.37,2013-01-11 05:04:00,
2013-01-10 21:09:00,40.1,37.4,30.19,North,0,2.3,2.3,90,0.02,CLR,,0.26,WeatherDisplay:10.37,2013-01-11 05:09:00,
2013-01-10 21:14:00,40.1,37.7,30.18,NE,45,8.1,8.1,91,0.02,CLR,,0.26,WeatherDisplay:10.37,2013-01-11 05:14:00,
2013-01-10 21:19:00,40.3,37.9,30.19,NE,45,1.1,1.1,91,0.02,CLR,,0.26,WeatherDisplay:10.37,2013-01-11 05:19:00,
2013-01-10 21:24:00,40.3,37.9,30.19,South,180,1.1,0.0,91,0.02,CLR,,0.26,WeatherDisplay:10.37,2013-01-11 05:24:00,
2013-01-10 21:29:00,40.1,37.7,30.18,West,270,1.1,0.0,91,0.01,CLR,,0.26,WeatherDisplay:10.37,2013-01-11 05:29:00,
2013-01-10 21:34:00,39.7,37.6,30.19,NE,45,8.1,8.1,92,0.00,CLR,,0.26,WeatherDisplay:10.37,2013-01-11 05:34:00,
2013-01-10 21:39:00,39.7,37.6,30.19,South,180,3.5,3.5,92,0.00,CLR,,0.26,WeatherDisplay:10.37,2013-01-11 05:39:00,
2013-01-10 21:44:00,39.9,37.5,30.19,NE,45,2.3,2.3,91,0.00,CLR,,0.26,WeatherDisplay:10.37,2013-01-11 05:44:00,
2013-01-10 21:49:00,39.7,37.3,30.19,West,270,2.3,2.3,91,0.00,CLR,,0.26,WeatherDisplay:10.37,2013-01-11 05:49:00,
2013-01-10 21:54:00,39.6,37.2,30.18,SW,225,1.6,0.0,91,0.00,CLR,,0.26,WeatherDisplay:10.37,2013-01-11 05:54:00,
2013-01-10 21:59:00,39.4,37.0,30.19,SW,225,3.5,3.5,91,0.00,CLR,,0.26,WeatherDisplay:10.37,2013-01-11 05:59:00,
2013-01-10 22:04:00,39.2,36.8,30.19,SW,225,0.0,0.0,91,0.00,CLR,,0.26,WeatherDisplay:10.37,2013-01-11 06:04:00,
2013-01-10 22:09:00,39.0,36.9,30.19,SW,225,2.3,0.0,92,0.00,CLR,,0.26,WeatherDisplay:10.37,2013-01-11 06:09:00,
2013-01-10 22:14:00,39.0,37.2,30.20,North,0,2.3,2.3,93,0.01,RA,,0.27,WeatherDisplay:10.37,2013-01-11 06:14:00,
2013-01-10 22:19:00,38.7,36.8,30.20,South,180,1.6,0.0,93,0.02,RA,,0.28,WeatherDisplay:10.37,2013-01-11 06:19:00,
2013-01-10 22:24:00,38.5,36.6,30.20,West,270,1.1,0.0,93,0.02,RA,,0.28,WeatherDisplay:10.37,2013-01-11 06:24:00,
2013-01-10 22:29:00,38.3,36.5,30.19,SE,135,1.1,0.0,93,0.02,CLR,,0.28,WeatherDisplay:10.37,2013-01-11 06:29:00,
2013-01-10 22:34:00,38.1,36.5,30.19,South,180,1.1,0.0,94,0.02,CLR,,0.28,WeatherDisplay:10.37,2013-01-11 06:34:00,
2013-01-10 22:39:00,37.9,36.4,30.19,SE,135,1.1,1.1,94,0.02,CLR,,0.28,WeatherDisplay:10.37,2013-01-11 06:39:00,
2013-01-10 22:44:00,37.6,36.0,30.19,SW,225,2.2,2.2,94,0.02,CLR,,0.28,WeatherDisplay:10.37,2013-01-11 06:44:00,
2013-01-10 22:49:00,37.4,36.1,30.18,SW,225,1.1,1.1,95,0.02,CLR,,0.28,WeatherDisplay:10.37,2013-01-11 06:49:00,
2013-01-10 22:54:00,37.2,35.9,30.18,SW,225,3.5,3.5,95,0.02,CLR,,0.28,WeatherDisplay:10.37,2013-01-11 06:54:00,
2013-01-10 22:59:00,37.2,35.9,30.19,SW,225,1.1,0.0,95,0.02,CLR,,0.28,WeatherDisplay:10.37,2013-01-11 06:59:00,
2013-01-10 23:04:00,37.2,36.2,30.19,SW,225,3.5,3.5,96,0.02,CLR,,0.28,WeatherDisplay:10.37,2013-01-11 07:04:00,
2013-01-10 23:09:00,37.2,36.2,30.19,SW,225,4.6,0.0,96,0.02,CLR,,0.28,WeatherDisplay:10.37,2013-01-11 07:09:00,
2013-01-10 23:14:00,37.6,36.8,30.19,NW,315,10.4,10.4,97,0.01,CLR,,0.28,WeatherDisplay:10.37,2013-01-11 07:14:00,
2013-01-10 23:19:00,38.3,37.5,30.19,SW,225,4.6,4.6,97,0.00,CLR,,0.28,WeatherDisplay:10.37,2013-01-11 07:19:00,
2013-01-10 23:24:00,38.7,37.9,30.19,SSW,202,2.3,2.3,97,0.00,CLR,,0.28,WeatherDisplay:10.37,2013-01-11 07:24:00,
2013-01-10 23:29:00,38.8,38.1,30.19,West,270,10.4,10.4,97,0.00,CLR,,0.28,WeatherDisplay:10.37,2013-01-11 07:29:00,
2013-01-10 23:34:00,39.6,38.8,30.19,NE,45,1.1,0.0,97,0.00,CLR,,0.28,WeatherDisplay:10.37,2013-01-11 07:34:00,
2013-01-10 23:39:00,39.4,38.6,30.18,NE,45,1.1,1.1,97,0.00,CLR,,0.28,WeatherDisplay:10.37,2013-01-11 07:39:00,
2013-01-10 23:44:00,39.2,38.2,30.18,South,180,2.3,2.3,96,0.00,CLR,,0.28,WeatherDisplay:10.37,2013-01-11 07:44:00,
2013-01-10 23:49:00,38.8,37.8,30.18,South,180,1.1,0.0,96,0.00,CLR,,0.28,WeatherDisplay:10.37,2013-01-11 07:49:00,
2013-01-10 23:54:00,38.7,37.6,30.19,NE,45,3.5,3.5,96,0.00,CLR,,0.28,WeatherDisplay:10.37,2013-01-11 07:54:00,
2013-01-10 23:59:00,38.5,37.4,30.19,East,90,1.1,0.0,96,0.00,CLR,,0.28,WeatherDisplay:10.37,2013-01-11 07:59:00,